Time;durP1;ratioP1;P1;durP2;ratioP2;P2;SDS_P1;SDS_P2;PMS_P1;PMS_P2;Temp;Humidity;BMP_temperature;BMP_pressure;BME280_temperature;BME280_humidity;BME280_pressure;Samples;Min_cycle;Max_cycle;Signal;HPM_P1;HPM_P2
2022/01/28 00:00:13;;;;;;;39.42;16.23;;;;;;;1.57;100.00;101819.66;20903381;28;20099;-68
2022/01/28 00:10:15;;;;;;;37.45;16.55;;;;;;;1.66;100.00;101835.56;20902863;28;20064;-70
2022/01/28 00:40:38;;;;;;;31.98;15.40;;;;;;;1.81;100.00;101874.06;20898994;28;20461;-69
2022/01/28 00:50:42;;;;;;;33.90;16.17;;;;;;;1.84;100.00;101894.00;20897189;28;20087;-69
2022/01/28 01:00:43;;;;;;;33.03;15.27;;;;;;;1.83;100.00;101863.81;20899190;28;20056;-70
2022/01/28 01:10:45;;;;;;;37.38;16.35;;;;;;;1.60;100.00;101867.97;20900007;28;20102;-70
2022/01/28 01:30:48;;;;;;;33.40;15.00;;;;;;;1.45;100.00;101881.97;20904041;28;20045;-68
2022/01/28 01:40:54;;;;;;;32.22;15.10;;;;;;;1.42;100.00;101906.75;20911103;28;20550;-69
2022/01/28 02:01:16;;;;;;;33.47;16.23;;;;;;;1.38;100.00;101925.47;20911443;28;20568;-68
2022/01/28 02:11:17;;;;;;;35.63;16.08;;;;;;;1.59;100.00;101943.66;20912320;28;20429;-69
2022/01/28 02:21:19;;;;;;;35.53;16.35;;;;;;;1.75;100.00;101959.91;20912067;28;20452;-69
2022/01/28 02:31:24;;;;;;;32.35;14.77;;;;;;;1.91;100.00;101976.06;20910765;28;20136;-70
2022/01/28 02:41:30;;;;;;;32.75;15.82;;;;;;;2.01;100.00;101986.91;20908999;28;20053;-70
2022/01/28 02:51:32;;;;;;;30.15;15.90;;;;;;;2.10;100.00;101972.59;20909193;28;20045;-69
2022/01/28 03:01:34;;;;;;;31.35;15.20;;;;;;;2.23;100.00;101986.13;20908081;28;20056;-69
2022/01/28 03:11:44;;;;;;;31.02;15.23;;;;;;;2.33;100.00;101982.25;20907866;28;20548;-67
2022/01/28 03:21:54;;;;;;;32.15;14.40;;;;;;;2.44;100.00;101982.69;20906619;28;20119;-66
2022/01/28 03:31:55;;;;;;;31.15;14.52;;;;;;;2.44;100.00;101974.94;20905888;28;20110;-66
2022/01/28 03:41:57;;;;;;;33.47;15.07;;;;;;;2.39;100.00;101991.94;20905541;28;20053;-66
2022/01/28 03:51:58;;;;;;;35.38;14.40;;;;;;;2.26;100.00;102012.13;20903679;28;20044;-67
2022/01/28 04:02:04;;;;;;;32.55;15.07;;;;;;;2.31;100.00;102026.13;20902660;28;20110;-66
2022/01/28 04:12:07;;;;;;;41.10;16.30;;;;;;;2.31;100.00;102041.63;20902814;28;20509;-66
2022/01/28 04:22:08;;;;;;;37.10;16.60;;;;;;;2.26;100.00;102048.31;20902471;28;20052;-67
2022/01/28 04:32:11;;;;;;;38.80;16.17;;;;;;;2.03;100.00;102051.53;20901739;28;20044;-67
2022/01/28 04:42:23;;;;;;;38.42;16.67;;;;;;;1.94;100.00;102074.38;20900741;28;20049;-68
2022/01/28 05:03:04;;;;;;;44.17;17.55;;;;;;;1.60;100.00;102072.78;20924935;23;20490;-78
2022/01/28 05:23:32;;;;;;;;;;;;;;;1.16;100.00;102089.59;20902052;28;20044;-78
2022/01/28 05:33:34;;;;;;;48.85;17.38;;;;;;;1.05;100.00;102095.91;20916766;28;19927;-77
2022/01/28 05:43:35;;;;;;;52.47;17.80;;;;;;;1.00;100.00;102102.53;20917688;28;20049;-77
2022/01/28 05:53:38;;;;;;;55.78;19.33;;;;;;;0.92;100.00;102125.38;20916586;28;20077;-78
2022/01/28 06:03:39;;;;;;;58.88;20.48;;;;;;;0.89;100.00;102147.53;20915813;28;20048;-78
2022/01/28 06:13:41;;;;;;;61.85;22.35;;;;;;;0.81;100.00;102151.38;20916154;28;20104;-78
2022/01/28 06:23:43;;;;;;;57.25;21.73;;;;;;;0.83;100.00;102170.41;20915631;28;20041;-77
2022/01/28 06:33:44;;;;;;;72.40;22.60;;;;;;;0.86;100.00;102166.28;20914080;28;20102;-80
2022/01/28 06:43:46;;;;;;;63.30;21.95;;;;;;;1.05;100.00;102172.41;20918549;28;20052;-82
2022/01/28 06:53:48;;;;;;;75.45;23.67;;;;;;;1.18;100.00;102185.13;20924048;28;20044;-81
2022/01/28 07:03:49;;;;;;;69.90;22.45;;;;;;;1.27;100.00;102181.31;20917098;28;20178;-80
2022/01/28 07:13:50;;;;;;;79.20;26.95;;;;;;;1.26;100.00;102191.56;20920897;28;20095;-80
2022/01/28 07:23:52;;;;;;;79.80;24.83;;;;;;;1.46;100.00;102223.53;20883336;28;20103;-80
2022/01/28 07:33:54;;;;;;;75.20;24.23;;;;;;;1.64;100.00;102250.28;20882699;28;20107;-80
2022/01/28 07:43:56;;;;;;;70.97;23.70;;;;;;;1.90;100.00;102242.94;20899945;28;20071;-80
2022/01/28 07:53:57;;;;;;;66.22;22.48;;;;;;;2.08;100.00;102259.34;20884408;28;20087;-81
2022/01/28 08:03:59;;;;;;;58.00;22.13;;;;;;;2.26;100.00;102259.34;20867472;28;20045;-81
2022/01/28 08:14:02;;;;;;;56.72;21.88;;;;;;;2.44;100.00;102274.81;20888808;28;20472;-81
2022/01/28 08:24:04;;;;;;;51.50;19.92;;;;;;;2.59;100.00;102291.06;20892244;28;20478;-81
2022/01/28 08:34:06;;;;;;;47.20;20.10;;;;;;;2.79;100.00;102295.47;20908408;28;20134;-81
2022/01/28 08:44:08;;;;;;;50.72;20.80;;;;;;;3.05;100.00;102295.75;20921481;28;20083;-81
2022/01/28 08:54:09;;;;;;;44.00;18.33;;;;;;;3.22;100.00;102301.72;20867636;28;20041;-81
2022/01/28 09:04:11;;;;;;;39.05;17.80;;;;;;;3.28;100.00;102312.34;20917500;28;20118;-81
2022/01/28 09:14:14;;;;;;;40.45;17.45;;;;;;;3.52;100.00;102309.94;20914818;28;20052;-81
2022/01/28 09:24:15;;;;;;;39.45;16.90;;;;;;;3.52;100.00;102307.34;20913601;28;20045;-82
2022/01/28 09:34:17;;;;;;;42.42;16.42;;;;;;;3.71;100.00;102314.22;20895689;28;20100;-81
2022/01/28 09:44:19;;;;;;;38.67;17.00;;;;;;;4.02;100.00;102342.31;20913639;28;20049;-81
2022/01/28 09:54:21;;;;;;;34.83;15.27;;;;;;;4.16;100.00;102351.53;20916901;28;20114;-81
2022/01/28 10:04:23;;;;;;;37.95;16.73;;;;;;;4.50;99.15;102353.81;20925335;28;20040;-81
2022/01/28 10:14:27;;;;;;;39.35;15.32;;;;;;;4.57;98.86;102350.66;20853437;28;20053;-81
2022/01/28 10:24:29;;;;;;;36.20;15.33;;;;;;;4.78;98.30;102362.69;20923782;28;20049;-81
2022/01/28 10:34:34;;;;;;;36.80;15.68;;;;;;;5.27;95.88;102346.38;20917162;28;20520;-82
2022/01/28 10:45:00;;;;;;;27.05;13.07;;;;;;;5.31;92.33;102359.53;20937558;28;20053;-82
2022/01/28 10:55:06;;;;;;;33.58;14.45;;;;;;;5.12;92.67;102359.69;20919870;28;20482;-81
2022/01/28 11:05:08;;;;;;;27.02;12.85;;;;;;;5.19;93.03;102353.91;20904322;28;20091;-81
2022/01/28 11:15:10;;;;;;;25.30;12.50;;;;;;;5.40;92.37;102359.00;20863904;28;20052;-81
2022/01/28 11:25:50;;;;;;;24.73;12.23;;;;;;;5.68;88.37;102341.81;20925591;28;20304;-80
2022/01/28 11:35:52;;;;;;;21.50;10.35;;;;;;;5.30;92.22;102343.91;20911232;28;20142;-80
2022/01/28 11:46:15;;;;;;;21.42;9.98;;;;;;;5.43;90.67;102340.94;20947705;28;20067;-80
2022/01/28 11:56:16;;;;;;;21.08;10.25;;;;;;;5.51;87.89;102315.22;20958605;28;20048;-80
2022/01/28 12:06:18;;;;;;;19.88;9.38;;;;;;;5.62;84.98;102325.19;20953943;28;20128;-81
2022/01/28 12:16:30;;;;;;;20.67;9.95;;;;;;;5.53;85.27;102321.38;20950951;28;20053;-79
2022/01/28 12:27:07;;;;;;;22.55;9.45;;;;;;;5.76;83.24;102296.22;20963332;28;20431;-81
2022/01/28 12:37:09;;;;;;;20.40;8.73;;;;;;;5.66;82.19;102287.22;20958653;28;20184;-80
2022/01/28 12:47:10;;;;;;;23.02;9.48;;;;;;;5.81;82.69;102294.66;20963770;28;20105;-79
2022/01/28 12:57:14;;;;;;;20.70;9.93;;;;;;;5.89;81.61;102288.88;20902029;28;20045;-82
2022/01/28 13:17:27;;;;;;;19.63;9.40;;;;;;;5.73;79.30;102285.69;20909879;28;20559;-82
2022/01/28 13:27:41;;;;;;;22.33;9.43;;;;;;;5.97;78.77;102290.88;20913964;28;20041;-83
2022/01/28 13:37:48;;;;;;;17.33;9.35;;;;;;;6.05;78.47;102285.09;20921989;28;20099;-82
2022/01/28 13:47:52;;;;;;;22.50;10.07;;;;;;;6.20;77.69;102283.84;20922159;28;20403;-83
2022/01/28 13:58:04;;;;;;;23.13;9.55;;;;;;;6.18;79.40;102286.41;20915328;28;20120;-82
2022/01/28 14:08:06;;;;;;;19.60;9.65;;;;;;;6.36;78.27;102286.06;20938411;28;20095;-83
2022/01/28 14:18:07;;;;;;;15.27;8.20;;;;;;;6.35;77.62;102280.00;20926751;28;20049;-82
2022/01/28 14:38:19;;;;;;;21.77;9.50;;;;;;;6.11;78.92;102276.59;20923824;28;20044;-81
2022/01/28 14:48:22;;;;;;;17.92;8.52;;;;;;;6.18;78.28;102276.00;20955333;28;20485;-81
2022/01/28 14:58:23;;;;;;;17.92;8.50;;;;;;;6.03;77.78;102275.47;20939910;28;20045;-81
2022/01/28 15:08:27;;;;;;;23.25;8.55;;;;;;;5.91;78.71;102270.72;20933449;28;20351;-81
2022/01/28 15:18:29;;;;;;;19.65;8.77;;;;;;;5.91;78.42;102275.91;20916246;28;20099;-81
2022/01/28 15:28:37;;;;;;;17.80;9.02;;;;;;;5.48;81.62;102273.56;20911835;28;20061;-81
2022/01/28 15:38:39;;;;;;;19.67;9.45;;;;;;;5.23;83.61;102270.09;20923954;28;20048;-80
2022/01/28 15:48:40;;;;;;;20.65;8.82;;;;;;;4.95;85.44;102293.28;20926304;28;20075;-80
2022/01/28 15:58:41;;;;;;;20.90;9.10;;;;;;;4.82;86.31;102300.59;20934204;28;20490;-80
2022/01/28 16:08:43;;;;;;;21.88;9.68;;;;;;;4.55;88.24;102310.81;20917582;28;20061;-80
2022/01/28 16:18:45;;;;;;;18.83;9.27;;;;;;;4.42;89.94;102318.03;20920474;28;20041;-80
2022/01/28 16:28:46;;;;;;;22.17;10.52;;;;;;;4.38;92.51;102315.31;20922499;28;20074;-81
2022/01/28 16:38:50;;;;;;;27.63;12.20;;;;;;;4.23;94.16;102319.00;20921838;28;20527;-80
2022/01/28 16:48:53;;;;;;;24.50;12.18;;;;;;;4.16;95.44;102330.81;20922651;28;20452;-80
2022/01/28 16:58:59;;;;;;;31.13;15.40;;;;;;;4.13;96.25;102340.19;20897038;28;20056;-80
2022/01/28 17:09:03;;;;;;;34.17;14.43;;;;;;;3.99;96.88;102357.75;20933079;28;20482;-80
2022/01/28 17:19:07;;;;;;;31.58;14.73;;;;;;;3.85;98.41;102363.22;20943351;28;20120;-80
2022/01/28 17:29:09;;;;;;;34.28;14.35;;;;;;;3.66;99.76;102386.53;20946432;28;20048;-81
2022/01/28 17:39:12;;;;;;;33.20;13.93;;;;;;;3.56;100.00;102382.66;20930119;28;20064;-80
2022/01/28 17:49:15;;;;;;;34.03;15.73;;;;;;;3.54;100.00;102373.91;20931366;28;20053;-81
2022/01/28 17:59:17;;;;;;;34.35;15.25;;;;;;;3.52;100.00;102385.03;20945347;28;20088;-81
2022/01/28 18:09:19;;;;;;;35.30;15.75;;;;;;;3.48;100.00;102378.84;20908579;28;20048;-81
2022/01/28 18:19:24;;;;;;;35.55;15.90;;;;;;;3.56;100.00;102403.38;20872033;28;20167;-81
2022/01/28 18:29:28;;;;;;;34.60;15.02;;;;;;;3.58;100.00;102395.69;20926490;28;20119;-82
2022/01/28 18:39:30;;;;;;;42.57;16.20;;;;;;;3.48;100.00;102411.63;20926361;28;20065;-81
2022/01/28 18:49:32;;;;;;;33.30;15.00;;;;;;;3.48;100.00;102401.25;20924948;28;20387;-81
2022/01/28 18:59:33;;;;;;;30.17;14.23;;;;;;;3.47;100.00;102407.25;20909531;28;20052;-79
2022/01/28 19:09:36;;;;;;;29.75;14.27;;;;;;;3.47;100.00;102420.22;20932921;28;20493;-79
2022/01/28 19:19:41;;;;;;;36.28;15.75;;;;;;;3.45;100.00;102414.97;20905772;28;20044;-79
2022/01/28 19:29:43;;;;;;;35.33;15.88;;;;;;;3.47;100.00;102409.84;20920484;28;20079;-78
2022/01/28 19:39:49;;;;;;;39.97;17.80;;;;;;;3.52;100.00;102410.94;20888000;28;20045;-79
2022/01/28 19:49:51;;;;;;;40.33;16.20;;;;;;;3.66;100.00;102408.97;20909764;28;20045;-79
2022/01/28 19:59:52;;;;;;;36.28;16.00;;;;;;;3.60;100.00;102394.06;20909709;28;20458;-78
2022/01/28 20:09:58;;;;;;;33.70;15.13;;;;;;;3.53;100.00;102376.44;20907976;28;20075;-78
2022/01/28 20:20:00;;;;;;;33.53;14.10;;;;;;;3.57;100.00;102373.19;20901472;28;20123;-79
2022/01/28 20:30:04;;;;;;;35.30;15.25;;;;;;;3.53;100.00;102360.91;20917030;28;20080;-78
2022/01/28 20:40:06;;;;;;;35.55;16.23;;;;;;;3.38;100.00;102362.81;20924211;28;20053;-79
2022/01/28 20:50:08;;;;;;;33.47;14.57;;;;;;;3.37;100.00;102345.53;20926016;28;20041;-78
2022/01/28 21:00:13;;;;;;;33.08;15.50;;;;;;;3.32;100.00;102320.31;20918333;28;20102;-78
2022/01/28 21:10:19;;;;;;;32.85;14.35;;;;;;;3.31;99.68;102334.09;20914573;28;20498;-78
2022/01/28 21:20:21;;;;;;;31.23;14.68;;;;;;;3.18;100.00;102336.03;20916853;28;20079;-78
2022/01/28 21:30:22;;;;;;;31.55;14.57;;;;;;;3.17;100.00;102332.56;20906350;28;20412;-78
2022/01/28 21:41:14;;;;;;;29.25;12.98;;;;;;;3.12;100.00;102315.06;20907423;28;20045;-78
2022/01/28 21:51:25;;;;;;;29.90;13.07;;;;;;;3.06;100.00;102318.22;20831872;28;20045;-78
2022/01/28 22:01:26;;;;;;;27.65;13.27;;;;;;;2.90;100.00;102308.00;20844507;28;20045;-79
2022/01/28 22:11:29;;;;;;;32.03;14.05;;;;;;;2.80;100.00;102307.59;20813768;28;20042;-79
2022/01/28 22:21:31;;;;;;;36.75;15.85;;;;;;;2.77;100.00;102328.13;20915907;28;20103;-79
2022/01/28 22:31:33;;;;;;;38.20;15.63;;;;;;;2.65;100.00;102299.13;20931619;28;20049;-79
2022/01/28 22:41:34;;;;;;;35.50;15.95;;;;;;;2.56;100.00;102290.94;20924631;28;20041;-78
2022/01/28 22:51:39;;;;;;;39.33;16.23;;;;;;;2.51;100.00;102280.38;20924093;28;20052;-78
2022/01/28 23:01:43;;;;;;;;;;;;;;;2.50;100.00;102280.31;20922366;28;20040;-78
2022/01/28 23:11:45;;;;;;;39.70;15.43;;;;;;;2.35;100.00;102275.28;20932583;28;19966;-78
2022/01/28 23:21:47;;;;;;;38.47;15.35;;;;;;;2.23;100.00;102275.56;20928774;28;20461;-77
2022/01/28 23:31:49;;;;;;;40.13;17.90;;;;;;;2.04;100.00;102247.06;20911819;28;20120;-77
2022/01/28 23:41:51;;;;;;;36.53;14.70;;;;;;;1.89;100.00;102217.91;20910996;28;20049;-77
2022/01/28 23:51:52;;;;;;;34.20;15.32;;;;;;;1.76;100.00;102227.63;20910838;28;20048;-77
